createdAt,value
2024-02-29T00:01:19.814Z,29.65
2024-02-29T00:03:46.353Z,29.63
2024-02-29T00:06:12.769Z,29.39
2024-02-29T00:08:39.174Z,29.62
2024-02-29T00:11:05.659Z,29.42
2024-02-29T00:13:32.056Z,29.51
2024-02-29T00:15:58.538Z,29.74
2024-02-29T00:18:25.004Z,29.69
2024-02-29T00:20:51.412Z,29.66
2024-02-29T00:23:17.872Z,29.44
2024-02-29T00:25:44.291Z,29.49
2024-02-29T00:28:10.786Z,29.49
2024-02-29T00:30:37.308Z,29.55
2024-02-29T00:33:03.790Z,29.40
2024-02-29T00:35:30.266Z,29.68
2024-02-29T00:37:56.707Z,29.49
2024-02-29T00:40:23.319Z,29.61
2024-02-29T00:42:49.858Z,29.63
2024-02-29T00:45:16.319Z,29.62
2024-02-29T00:47:42.748Z,29.61
2024-02-29T00:50:09.238Z,29.55
2024-02-29T00:52:35.669Z,29.66
2024-02-29T00:55:02.097Z,29.48
2024-02-29T00:57:28.624Z,29.51
2024-02-29T00:59:55.064Z,29.44
2024-02-29T01:02:21.479Z,29.44
2024-02-29T01:04:47.907Z,29.21
2024-02-29T01:07:14.431Z,29.38
2024-02-29T01:09:40.924Z,29.60
2024-02-29T01:12:07.399Z,29.40
2024-02-29T01:14:33.820Z,29.58
2024-02-29T01:17:00.206Z,29.44
2024-02-29T01:19:26.643Z,29.43
2024-02-29T01:21:53.088Z,29.52
2024-02-29T01:24:19.506Z,29.46
2024-02-29T01:26:45.944Z,29.35
2024-02-29T01:29:12.375Z,29.64
2024-02-29T01:31:38.825Z,29.68
2024-02-29T01:34:05.305Z,29.44
2024-02-29T01:36:31.783Z,29.45
2024-02-29T01:38:58.211Z,29.43
2024-02-29T01:41:24.632Z,29.50
2024-02-29T01:43:51.036Z,29.52
2024-02-29T01:46:17.472Z,29.50
2024-02-29T01:48:44.019Z,29.49
2024-02-29T01:51:10.423Z,29.32
2024-02-29T01:53:36.876Z,29.51
2024-02-29T01:56:03.325Z,29.33
2024-02-29T01:58:29.755Z,29.27
2024-02-29T02:00:56.278Z,29.56
2024-02-29T02:03:22.761Z,29.43
2024-02-29T02:05:49.166Z,29.34
2024-02-29T02:08:15.610Z,29.50
2024-02-29T02:10:41.996Z,29.31
2024-02-29T02:13:08.453Z,29.38
2024-02-29T02:15:34.945Z,29.36
2024-02-29T02:18:01.460Z,29.43
2024-02-29T02:20:27.900Z,29.34
2024-02-29T02:22:54.330Z,29.51
2024-02-29T02:25:20.749Z,29.34
2024-02-29T02:27:47.235Z,29.27
2024-02-29T02:30:13.742Z,29.34
2024-02-29T02:32:40.253Z,29.38
2024-02-29T02:35:06.725Z,29.40
2024-02-29T02:37:33.132Z,29.54
2024-02-29T02:39:59.611Z,29.26
2024-02-29T02:42:26.083Z,29.27
2024-02-29T02:44:52.481Z,29.44
2024-02-29T02:47:18.907Z,29.31
2024-02-29T02:49:45.393Z,29.36
2024-02-29T02:52:11.928Z,29.32
2024-02-29T02:54:38.414Z,29.47
2024-02-29T02:57:04.829Z,29.38
2024-02-29T02:59:31.275Z,29.27
2024-02-29T03:01:57.712Z,29.49
2024-02-29T03:04:24.170Z,29.28
2024-02-29T03:06:50.590Z,29.34
2024-02-29T03:09:17.069Z,29.45
2024-02-29T03:11:43.480Z,29.44
2024-02-29T03:14:09.876Z,29.33
2024-02-29T03:16:36.311Z,29.48
2024-02-29T03:19:02.807Z,29.33
2024-02-29T03:21:29.356Z,29.47
2024-02-29T03:23:55.808Z,29.32
2024-02-29T03:26:22.229Z,29.49
2024-02-29T03:28:48.709Z,29.32
2024-02-29T03:31:15.178Z,29.29
2024-02-29T03:33:41.689Z,29.29
2024-02-29T03:36:08.176Z,29.55
2024-02-29T03:38:34.598Z,29.31
2024-02-29T03:41:01.007Z,29.35
2024-02-29T03:43:27.440Z,29.29
2024-02-29T03:45:53.891Z,29.25
2024-02-29T03:48:20.331Z,29.39
2024-02-29T03:50:46.763Z,29.25
2024-02-29T03:53:13.179Z,29.31
2024-02-29T03:55:39.608Z,29.28
2024-02-29T03:58:06.127Z,29.25
2024-02-29T04:00:32.668Z,29.22
2024-02-29T04:02:59.110Z,29.44
2024-02-29T04:05:25.746Z,29.19
2024-02-29T04:07:52.345Z,29.41
2024-02-29T04:10:18.813Z,29.47
2024-02-29T04:12:45.319Z,29.27
2024-02-29T04:15:11.845Z,29.27
2024-02-29T04:17:38.249Z,29.42
2024-02-29T04:20:04.682Z,29.39
2024-02-29T04:22:31.178Z,29.32
2024-02-29T04:24:57.646Z,29.45
2024-02-29T04:27:24.108Z,29.33
2024-02-29T04:29:50.545Z,29.37
2024-02-29T04:32:16.924Z,29.23
2024-02-29T04:34:43.395Z,29.23
2024-02-29T04:37:10.018Z,29.25
2024-02-29T04:39:36.534Z,29.39
2024-02-29T04:42:03.022Z,29.39
2024-02-29T04:44:29.442Z,29.17
2024-02-29T04:46:55.864Z,29.40
2024-02-29T04:49:22.346Z,29.33
2024-02-29T04:51:48.840Z,29.24
2024-02-29T04:54:15.336Z,29.39
2024-02-29T04:56:41.755Z,29.31
2024-02-29T04:59:08.202Z,29.25
2024-02-29T05:01:34.859Z,29.35
2024-02-29T05:04:01.531Z,29.25
2024-02-29T05:06:28.042Z,29.29
2024-02-29T05:08:54.477Z,29.31
2024-02-29T05:11:20.908Z,29.07
2024-02-29T05:13:47.398Z,29.08
2024-02-29T05:16:13.824Z,29.46
2024-02-29T05:18:40.281Z,29.67
2024-02-29T05:21:06.799Z,29.63
2024-02-29T05:23:33.270Z,29.53
2024-02-29T05:25:59.672Z,29.56
2024-02-29T05:28:26.093Z,29.38
2024-02-29T05:30:52.584Z,29.40
2024-02-29T05:33:19.012Z,29.33
2024-02-29T05:35:45.532Z,29.05
2024-02-29T05:38:12.023Z,29.12
2024-02-29T05:40:38.634Z,29.21
2024-02-29T05:43:05.223Z,28.40
2024-02-29T05:45:31.724Z,29.95
2024-02-29T05:47:58.184Z,30.52
2024-02-29T05:50:24.639Z,30.59
2024-02-29T05:52:51.084Z,30.58
2024-02-29T05:55:17.523Z,30.40
2024-02-29T05:57:44.029Z,30.21
2024-02-29T06:00:10.479Z,30.15
2024-02-29T06:02:39.828Z,30.02
2024-02-29T06:05:06.322Z,29.78
2024-02-29T06:07:32.738Z,29.91
2024-02-29T06:09:59.219Z,29.77
2024-02-29T06:12:25.685Z,29.57
2024-02-29T06:14:52.118Z,28.68
2024-02-29T06:17:18.576Z,28.97
2024-02-29T06:19:45.020Z,28.86
2024-02-29T06:22:11.513Z,28.92
2024-02-29T06:24:37.960Z,28.73
2024-02-29T06:27:04.410Z,28.47
2024-02-29T06:29:30.830Z,28.46
2024-02-29T06:31:57.258Z,28.41
2024-02-29T06:34:23.794Z,28.21
2024-02-29T06:36:50.298Z,27.90
2024-02-29T06:39:16.719Z,27.69
2024-02-29T06:41:43.222Z,27.67
2024-02-29T06:44:09.654Z,27.43
2024-02-29T06:46:36.069Z,27.37
2024-02-29T06:49:02.560Z,27.59
2024-02-29T06:51:28.987Z,27.34
2024-02-29T06:53:55.424Z,27.25
2024-02-29T06:56:21.851Z,27.01
2024-02-29T06:58:48.256Z,26.97
2024-02-29T07:01:14.757Z,26.84
2024-02-29T07:03:41.238Z,26.99
2024-02-29T07:06:07.686Z,26.74
2024-02-29T07:08:34.121Z,26.90
2024-02-29T07:11:02.392Z,26.54
2024-02-29T07:13:29.314Z,26.60
2024-02-29T07:15:55.849Z,26.40
2024-02-29T07:18:22.375Z,26.39
2024-02-29T07:20:48.797Z,26.43
2024-02-29T07:23:15.226Z,26.38
2024-02-29T07:25:41.724Z,26.88
2024-02-29T07:28:08.177Z,26.79
2024-02-29T07:30:34.698Z,26.63
2024-02-29T07:33:01.247Z,26.72
2024-02-29T07:35:27.670Z,26.77
2024-02-29T07:37:55.047Z,26.55
2024-02-29T07:40:21.766Z,26.40
2024-02-29T07:42:48.327Z,26.53
2024-02-29T07:45:17.283Z,26.14
2024-02-29T07:47:44.943Z,26.15
2024-02-29T07:50:11.388Z,25.86
2024-02-29T07:52:37.857Z,25.78
2024-02-29T07:55:04.357Z,26.16
2024-02-29T07:57:30.771Z,26.09
2024-02-29T07:59:57.269Z,25.74
2024-02-29T08:02:24.867Z,25.81
2024-02-29T08:04:51.464Z,25.72
2024-02-29T08:07:18.001Z,25.93
2024-02-29T08:09:44.488Z,25.82
2024-02-29T08:12:10.942Z,25.52
2024-02-29T08:14:37.377Z,25.56
2024-02-29T08:17:03.838Z,25.58
2024-02-29T08:19:30.221Z,25.30
2024-02-29T08:21:56.680Z,25.21
2024-02-29T08:24:23.124Z,25.88
2024-02-29T08:26:49.538Z,25.61
2024-02-29T08:29:16.009Z,26.01
2024-02-29T08:31:42.592Z,26.08
2024-02-29T08:34:09.265Z,25.89
2024-02-29T08:36:35.817Z,26.21
2024-02-29T08:39:02.301Z,25.52
2024-02-29T08:41:28.701Z,26.31
2024-02-29T08:43:55.160Z,26.70
2024-02-29T08:46:21.653Z,26.78
2024-02-29T08:48:48.228Z,26.66
2024-02-29T08:51:14.776Z,26.66
2024-02-29T08:53:41.204Z,26.91
2024-02-29T08:56:07.633Z,26.79
2024-02-29T08:58:34.109Z,26.91
2024-02-29T09:01:01.080Z,27.05
2024-02-29T09:03:27.631Z,27.18
2024-02-29T09:05:54.108Z,27.25
2024-02-29T09:08:22.789Z,27.34
2024-02-29T09:10:49.489Z,27.37
2024-02-29T09:13:26.206Z,27.42
2024-02-29T09:15:57.408Z,27.56
2024-02-29T09:18:23.899Z,27.63
2024-02-29T09:20:50.330Z,27.80
2024-02-29T09:23:16.726Z,27.86
2024-02-29T09:25:43.306Z,28.13
2024-02-29T09:28:09.765Z,28.79
2024-02-29T09:30:36.259Z,28.94
2024-02-29T09:33:02.766Z,28.71
2024-02-29T09:35:29.227Z,28.80
2024-02-29T09:37:55.669Z,29.04
2024-02-29T09:40:22.244Z,29.00
2024-02-29T09:42:48.835Z,29.09
2024-02-29T09:45:15.282Z,28.98
2024-02-29T09:47:41.742Z,29.06
2024-02-29T09:50:08.168Z,29.38
2024-02-29T09:52:34.579Z,29.32
2024-02-29T09:55:01.087Z,29.23
2024-02-29T09:57:27.595Z,29.72
2024-02-29T09:59:54.048Z,30.02
2024-02-29T10:02:20.471Z,30.24
2024-02-29T10:04:46.917Z,30.19
2024-02-29T10:07:13.378Z,30.22
2024-02-29T10:09:39.881Z,30.20
2024-02-29T10:12:06.453Z,30.28
2024-02-29T10:14:32.939Z,30.44
2024-02-29T10:16:59.374Z,30.88
2024-02-29T10:19:25.941Z,31.23
2024-02-29T10:21:52.450Z,31.52
2024-02-29T10:24:18.953Z,31.64
2024-02-29T10:26:45.380Z,31.55
2024-02-29T10:29:11.848Z,31.37
2024-02-29T10:31:39.756Z,31.72
2024-02-29T10:34:06.553Z,31.94
2024-02-29T10:36:33.012Z,32.17
2024-02-29T10:38:59.445Z,32.75
2024-02-29T10:41:25.851Z,32.85
2024-02-29T10:43:52.293Z,33.09
2024-02-29T10:46:18.781Z,32.99
2024-02-29T10:48:45.253Z,33.00
2024-02-29T10:51:11.763Z,33.17
2024-02-29T10:53:38.191Z,32.99
2024-02-29T10:56:04.601Z,33.03
2024-02-29T10:58:31.030Z,33.10
2024-02-29T11:00:57.574Z,33.10
2024-02-29T11:03:24.025Z,32.99
2024-02-29T11:05:50.507Z,33.13
2024-02-29T11:08:16.931Z,33.07
2024-02-29T11:10:43.453Z,33.01
2024-02-29T11:13:09.970Z,33.15
2024-02-29T11:15:37.014Z,33.30
2024-02-29T11:18:03.727Z,33.31
2024-02-29T11:20:32.139Z,33.06
2024-02-29T11:23:00.950Z,33.11
2024-02-29T11:25:29.816Z,33.06
2024-02-29T11:27:56.310Z,33.04
2024-02-29T11:30:22.804Z,32.76
2024-02-29T11:32:49.270Z,32.76
2024-02-29T11:35:15.769Z,32.45
2024-02-29T11:37:42.206Z,32.31
2024-02-29T11:40:08.782Z,32.29
2024-02-29T11:42:35.301Z,32.15
2024-02-29T11:45:01.735Z,32.07
2024-02-29T11:47:28.250Z,31.75
2024-02-29T11:49:54.664Z,31.81
2024-02-29T11:52:21.221Z,31.57
2024-02-29T11:54:47.742Z,31.76
2024-02-29T11:57:14.170Z,31.61
2024-02-29T11:59:40.637Z,32.12
2024-02-29T12:02:07.184Z,31.76
2024-02-29T12:04:35.059Z,31.70
2024-02-29T12:07:01.732Z,31.64
2024-02-29T12:09:28.187Z,31.51
2024-02-29T12:11:54.655Z,31.26
2024-02-29T12:14:21.123Z,31.34
2024-02-29T12:16:47.596Z,31.14
2024-02-29T12:19:14.147Z,31.19
2024-02-29T12:21:40.662Z,31.00
2024-02-29T12:24:07.129Z,31.04
2024-02-29T12:26:33.577Z,30.95
2024-02-29T12:29:00.032Z,31.00
2024-02-29T12:31:26.534Z,30.73
2024-02-29T12:33:52.995Z,31.01
2024-02-29T12:36:19.615Z,31.27
2024-02-29T12:38:46.096Z,31.17
2024-02-29T12:41:12.514Z,31.01
2024-02-29T12:43:38.975Z,30.98
2024-02-29T12:46:05.500Z,31.08
2024-02-29T12:48:32.031Z,30.98
2024-02-29T12:50:58.514Z,30.74
2024-02-29T12:53:24.957Z,30.85
2024-02-29T12:55:51.395Z,30.97
2024-02-29T12:58:17.828Z,30.65
2024-02-29T13:00:44.801Z,30.99
2024-02-29T13:03:11.792Z,30.90
2024-02-29T13:05:38.294Z,30.94
2024-02-29T13:08:04.725Z,30.95
2024-02-29T13:10:31.243Z,30.83
2024-02-29T13:13:03.948Z,30.55
2024-02-29T13:15:36.271Z,30.77
2024-02-29T13:18:02.753Z,30.42
2024-02-29T13:20:29.189Z,30.37
2024-02-29T13:22:55.655Z,30.43
2024-02-29T13:25:22.190Z,30.34
2024-02-29T13:27:48.771Z,30.22
2024-02-29T13:30:15.221Z,30.11
2024-02-29T13:32:41.663Z,30.13
2024-02-29T13:35:08.084Z,29.95
2024-02-29T13:37:34.548Z,30.14
2024-02-29T13:40:01.026Z,30.00
2024-02-29T13:42:27.487Z,30.10
2024-02-29T13:44:53.899Z,29.98
2024-02-29T13:47:20.331Z,30.01
2024-02-29T13:49:46.750Z,29.98
2024-02-29T13:52:13.256Z,29.74
2024-02-29T13:54:39.731Z,29.99
2024-02-29T13:57:06.193Z,29.92
2024-02-29T13:59:32.645Z,30.12
2024-02-29T14:01:59.175Z,29.71
2024-02-29T14:04:25.735Z,30.06
2024-02-29T14:06:52.275Z,29.96
2024-02-29T14:09:18.735Z,29.94
2024-02-29T14:11:45.172Z,30.02
2024-02-29T14:14:11.623Z,29.90
2024-02-29T14:16:38.083Z,29.91
2024-02-29T14:19:04.601Z,30.02
2024-02-29T14:21:31.149Z,29.96
2024-02-29T14:23:57.560Z,29.96
2024-02-29T14:26:23.956Z,30.10
2024-02-29T14:28:50.403Z,29.73
2024-02-29T14:31:16.894Z,29.58
2024-02-29T14:33:43.365Z,30.02
2024-02-29T14:36:09.815Z,29.83
2024-02-29T14:38:36.236Z,29.83
2024-02-29T14:41:02.660Z,29.75
2024-02-29T14:43:29.112Z,29.88
2024-02-29T14:45:55.596Z,29.92
2024-02-29T14:48:22.082Z,29.93
2024-02-29T14:50:48.513Z,29.95
2024-02-29T14:53:14.942Z,29.92
2024-02-29T14:55:41.326Z,30.00
2024-02-29T14:58:07.779Z,29.77
2024-02-29T15:00:34.192Z,29.82
2024-02-29T15:03:00.599Z,29.94
2024-02-29T15:05:27.050Z,30.00
2024-02-29T15:07:53.479Z,29.99
2024-02-29T15:10:19.951Z,30.29
2024-02-29T15:12:46.444Z,30.46
2024-02-29T15:15:12.877Z,30.56
2024-02-29T15:17:39.379Z,30.46
2024-02-29T15:20:05.888Z,30.48
2024-02-29T15:22:32.295Z,30.46
2024-02-29T15:24:58.721Z,30.49
2024-02-29T15:27:25.273Z,29.34
2024-02-29T15:29:51.831Z,30.26
2024-02-29T15:32:18.258Z,31.01
2024-02-29T15:34:47.401Z,31.77
2024-02-29T15:37:14.454Z,31.85
2024-02-29T15:39:40.952Z,31.25
2024-02-29T15:42:07.438Z,30.89
2024-02-29T15:44:33.838Z,30.65
2024-02-29T15:47:00.257Z,30.57
2024-02-29T15:49:26.805Z,30.26
2024-02-29T15:51:53.353Z,30.07
2024-02-29T15:54:19.815Z,29.94
2024-02-29T15:56:46.304Z,29.78
2024-02-29T15:59:12.748Z,29.69
2024-02-29T16:01:39.253Z,29.33
2024-02-29T16:04:05.755Z,29.35
2024-02-29T16:06:32.255Z,29.27
2024-02-29T16:08:58.657Z,29.05
2024-02-29T16:11:25.111Z,29.07
2024-02-29T16:13:51.559Z,28.91
2024-02-29T16:16:18.099Z,28.73
2024-02-29T16:18:44.669Z,28.67
2024-02-29T16:21:11.098Z,28.58
2024-02-29T16:23:37.530Z,28.33
2024-02-29T16:26:03.974Z,28.37
2024-02-29T16:28:30.473Z,28.33
2024-02-29T16:30:56.986Z,28.41
2024-02-29T16:33:23.412Z,28.10
2024-02-29T16:35:49.851Z,28.16
2024-02-29T16:38:16.283Z,28.09
2024-02-29T16:40:42.704Z,28.09
2024-02-29T16:43:09.179Z,28.11
2024-02-29T16:45:35.591Z,27.99
2024-02-29T16:48:02.060Z,27.96
2024-02-29T16:50:28.607Z,27.75
2024-02-29T16:52:55.031Z,28.01
2024-02-29T16:55:21.511Z,27.73
2024-02-29T16:57:47.982Z,27.86
2024-02-29T17:00:14.412Z,27.87
2024-02-29T17:02:40.856Z,27.67
2024-02-29T17:05:07.334Z,27.69
2024-02-29T17:07:33.769Z,27.42
2024-02-29T17:10:00.493Z,27.78
2024-02-29T17:12:27.072Z,27.47
2024-02-29T17:14:53.464Z,27.63
2024-02-29T17:17:20.621Z,27.49
2024-02-29T17:19:47.048Z,27.45
2024-02-29T17:22:13.524Z,27.41
2024-02-29T17:24:40.011Z,27.42
2024-02-29T17:27:06.417Z,27.47
2024-02-29T17:29:32.863Z,27.14
2024-02-29T17:31:59.304Z,27.41
2024-02-29T17:34:25.815Z,27.32
2024-02-29T17:36:52.411Z,27.45
2024-02-29T17:39:18.881Z,27.51
2024-02-29T17:41:45.271Z,27.21
2024-02-29T17:44:11.718Z,27.36
2024-02-29T17:46:38.125Z,27.30
2024-02-29T17:49:04.595Z,27.35
2024-02-29T17:51:31.078Z,27.36
2024-02-29T17:53:57.489Z,27.40
2024-02-29T17:56:23.916Z,27.15
2024-02-29T17:58:50.500Z,27.22
2024-02-29T18:01:17.058Z,27.14
2024-02-29T18:03:43.562Z,27.17
2024-02-29T18:06:09.958Z,27.26
2024-02-29T18:08:36.373Z,27.25
2024-02-29T18:11:02.855Z,27.21
2024-02-29T18:13:29.327Z,27.33
2024-02-29T18:15:55.832Z,27.34
2024-02-29T18:18:22.261Z,27.13
2024-02-29T18:20:48.674Z,27.02
2024-02-29T18:23:15.115Z,27.17
2024-02-29T18:25:41.650Z,27.09
2024-02-29T18:28:08.125Z,27.14
2024-02-29T18:30:34.589Z,27.06
2024-02-29T18:33:01.072Z,27.18
2024-02-29T18:35:27.498Z,27.03
2024-02-29T18:37:53.936Z,27.06
2024-02-29T18:40:20.402Z,27.11
2024-02-29T18:42:46.836Z,27.01
2024-02-29T18:45:13.270Z,26.86
2024-02-29T18:47:39.831Z,26.93
2024-02-29T18:50:06.325Z,27.02
2024-02-29T18:52:32.833Z,26.94
2024-02-29T18:54:59.302Z,26.68
2024-02-29T18:57:25.777Z,26.92
2024-02-29T18:59:52.204Z,26.75
2024-02-29T19:02:18.620Z,26.80
2024-02-29T19:04:45.108Z,26.62
2024-02-29T19:07:11.620Z,26.82
2024-02-29T19:09:38.118Z,26.58
2024-02-29T19:12:04.560Z,26.63
2024-02-29T19:14:30.987Z,26.89
2024-02-29T19:16:57.394Z,26.90
2024-02-29T19:19:24.049Z,26.63
2024-02-29T19:21:50.573Z,26.74
2024-02-29T19:24:16.998Z,26.83
2024-02-29T19:26:43.437Z,26.65
2024-02-29T19:29:09.884Z,26.74
2024-02-29T19:31:36.287Z,26.88
2024-02-29T19:34:02.762Z,26.86
2024-02-29T19:36:29.190Z,26.65
2024-02-29T19:38:55.596Z,26.75
2024-02-29T19:41:23.199Z,26.79
2024-02-29T19:43:49.587Z,26.88
2024-02-29T19:46:16.256Z,26.72
2024-02-29T19:48:42.781Z,26.90
2024-02-29T19:51:09.210Z,26.98
2024-02-29T19:53:35.642Z,26.62
2024-02-29T19:56:02.070Z,26.90
2024-02-29T19:58:28.586Z,26.88
2024-02-29T20:00:55.138Z,26.98
2024-02-29T20:03:21.633Z,26.86
2024-02-29T20:05:48.023Z,27.07
2024-02-29T20:08:14.450Z,26.87
2024-02-29T20:10:40.890Z,26.93
2024-02-29T20:13:07.352Z,26.83
2024-02-29T20:15:33.834Z,26.68
2024-02-29T20:18:00.344Z,26.72
2024-02-29T20:20:26.775Z,26.82
2024-02-29T20:22:53.203Z,26.86
2024-02-29T20:25:19.652Z,26.63
2024-02-29T20:27:46.088Z,26.63
2024-02-29T20:30:12.539Z,26.82
2024-02-29T20:32:38.971Z,26.67
2024-02-29T20:35:05.413Z,26.67
2024-02-29T20:37:31.936Z,26.37
2024-02-29T20:39:58.409Z,26.54
2024-02-29T20:42:24.849Z,26.50
2024-02-29T20:44:51.251Z,26.52
2024-02-29T20:47:18.011Z,26.31
2024-02-29T20:49:44.453Z,26.27
2024-02-29T20:52:12.412Z,26.23
2024-02-29T20:54:39.978Z,26.35
2024-02-29T20:57:06.394Z,26.41
2024-02-29T20:59:32.813Z,26.42
2024-02-29T21:01:59.481Z,26.41
2024-02-29T21:04:26.143Z,26.32
2024-02-29T21:06:52.615Z,26.32
2024-02-29T21:09:19.048Z,26.42
2024-02-29T21:11:45.474Z,26.48
2024-02-29T21:14:11.917Z,26.37
2024-02-29T21:16:38.361Z,26.39
2024-02-29T21:19:04.860Z,26.17
2024-02-29T21:21:31.373Z,26.35
2024-02-29T21:23:57.868Z,26.25
2024-02-29T21:26:24.309Z,26.25
2024-02-29T21:28:50.747Z,26.29
2024-02-29T21:31:17.176Z,26.50
2024-02-29T21:33:43.686Z,26.43
2024-02-29T21:36:10.139Z,26.55
2024-02-29T21:38:36.572Z,26.55
2024-02-29T21:41:03.038Z,26.58
2024-02-29T21:43:29.474Z,26.51
2024-02-29T21:45:55.975Z,26.44
2024-02-29T21:48:22.440Z,26.64
2024-02-29T21:50:48.868Z,26.29
2024-02-29T21:53:15.339Z,26.37
2024-02-29T21:55:41.780Z,26.50
2024-02-29T21:58:08.222Z,26.27
2024-02-29T22:00:34.680Z,26.46
2024-02-29T22:03:01.115Z,26.44
2024-02-29T22:05:27.500Z,26.20
2024-02-29T22:07:53.948Z,26.24
2024-02-29T22:10:20.421Z,26.36
2024-02-29T22:12:46.884Z,26.25
2024-02-29T22:15:13.412Z,26.32
2024-02-29T22:17:39.917Z,26.32
2024-02-29T22:20:06.335Z,26.46
2024-02-29T22:22:32.814Z,26.33
2024-02-29T22:24:59.326Z,26.46
2024-02-29T22:27:25.795Z,26.20
2024-02-29T22:29:52.253Z,26.37
2024-02-29T22:32:18.670Z,26.41
2024-02-29T22:34:45.119Z,25.96
2024-02-29T22:37:11.563Z,26.30
2024-02-29T22:39:38.035Z,26.18
2024-02-29T22:42:04.465Z,26.22
2024-02-29T22:44:30.936Z,26.11
2024-02-29T22:46:57.383Z,26.13
2024-02-29T22:49:23.932Z,26.30
2024-02-29T22:51:50.497Z,26.24
2024-02-29T22:54:16.944Z,26.17
2024-02-29T22:56:43.370Z,26.21
2024-02-29T22:59:09.793Z,26.18
2024-02-29T23:01:36.387Z,26.23
2024-02-29T23:04:02.944Z,26.24
2024-02-29T23:06:29.376Z,26.11
2024-02-29T23:08:55.836Z,26.25
2024-02-29T23:11:22.374Z,26.09
2024-02-29T23:13:48.804Z,26.17
2024-02-29T23:16:15.380Z,25.89
2024-02-29T23:18:41.856Z,25.89
2024-02-29T23:21:08.295Z,26.13
2024-02-29T23:23:34.720Z,26.10
2024-02-29T23:26:01.189Z,26.06
2024-02-29T23:28:27.670Z,25.92
2024-02-29T23:30:54.110Z,26.05
2024-02-29T23:33:20.843Z,26.15
2024-02-29T23:35:47.334Z,25.97
2024-02-29T23:38:13.775Z,26.17
2024-02-29T23:40:40.284Z,26.06
2024-02-29T23:43:06.885Z,26.06
2024-02-29T23:45:33.297Z,25.88
2024-02-29T23:47:59.787Z,25.99
2024-02-29T23:50:26.257Z,26.09
2024-02-29T23:52:52.675Z,25.97
2024-02-29T23:55:19.248Z,25.86
2024-02-29T23:57:45.746Z,25.81
